createdAt,value
2018-12-05T00:02:09.227Z,41.83
2018-12-05T00:04:47.890Z,46.05
2018-12-05T00:07:23.983Z,48.95
2018-12-05T00:09:58.162Z,52.25
2018-12-05T00:12:33.119Z,51.42
2018-12-05T00:15:09.258Z,51.15
2018-12-05T00:20:40.065Z,42.73
2018-12-05T00:23:16.699Z,40.35
2018-12-05T00:25:57.451Z,44.50
2018-12-05T00:28:32.015Z,86.40
2018-12-05T00:31:08.897Z,131.30
2018-12-05T00:33:46.240Z,91.28
2018-12-05T00:36:22.637Z,67.67
2018-12-05T00:38:58.745Z,52.08
2018-12-05T00:41:35.455Z,53.13
2018-12-05T00:44:20.427Z,52.45
2018-12-05T00:46:55.272Z,51.65
2018-12-05T00:49:31.642Z,47.85
2018-12-05T00:52:08.096Z,52.23
2018-12-05T00:54:42.258Z,55.38
2018-12-05T00:57:22.760Z,62.33
2018-12-05T01:00:01.350Z,58.33
2018-12-05T01:02:37.909Z,62.50
2018-12-05T01:05:18.234Z,44.77
2018-12-05T01:07:54.089Z,52.88
2018-12-05T01:10:30.237Z,46.37
2018-12-05T01:13:11.298Z,44.98
2018-12-05T01:15:49.987Z,49.38
2018-12-05T01:18:26.089Z,51.02
2018-12-05T01:21:00.828Z,52.35
2018-12-05T01:23:37.378Z,52.15
2018-12-05T01:26:23.825Z,52.03
2018-12-05T01:29:04.838Z,57.33
2018-12-05T01:31:38.667Z,55.15
2018-12-05T01:34:14.986Z,54.05
2018-12-05T01:36:51.132Z,58.33
2018-12-05T01:39:25.857Z,51.90
2018-12-05T01:42:06.619Z,51.75
2018-12-05T01:44:43.409Z,55.75
2018-12-05T01:47:15.413Z,51.37
2018-12-05T01:49:56.363Z,52.03
2018-12-05T01:52:40.681Z,57.20
2018-12-05T01:55:18.131Z,50.10
2018-12-05T01:57:52.413Z,53.17
2018-12-05T02:00:29.660Z,58.85
2018-12-05T02:03:05.816Z,58.40
2018-12-05T02:05:41.649Z,51.77
2018-12-05T02:08:19.581Z,48.60
2018-12-05T02:10:55.825Z,44.35
2018-12-05T02:13:28.784Z,50.00
2018-12-05T02:16:03.187Z,48.50
2018-12-05T02:18:44.387Z,51.28
2018-12-05T02:21:18.426Z,44.03
2018-12-05T02:23:54.539Z,45.10
2018-12-05T02:26:30.453Z,50.38
2018-12-05T02:29:06.689Z,50.55
2018-12-05T02:57:25.576Z,32.93
2018-12-05T02:59:59.999Z,31.27
2018-12-05T03:02:34.363Z,31.00
2018-12-05T03:05:10.957Z,35.80
2018-12-05T03:07:47.605Z,33.18
2018-12-05T03:10:29.086Z,33.75
2018-12-05T03:13:03.779Z,35.98
2018-12-05T03:15:38.465Z,34.70
2018-12-05T03:18:23.103Z,38.17
2018-12-05T03:21:00.707Z,38.78
2018-12-05T03:23:37.218Z,40.70
2018-12-05T03:26:17.821Z,40.55
2018-12-05T03:28:54.044Z,43.02
2018-12-05T03:31:32.812Z,38.35
2018-12-05T03:34:08.816Z,40.43
2018-12-05T03:36:49.891Z,42.78
2018-12-05T03:39:24.613Z,38.13
2018-12-05T03:41:56.331Z,38.40
2018-12-05T03:44:32.751Z,39.98
2018-12-05T03:47:10.720Z,64.53
2018-12-05T03:49:51.160Z,103.15
2018-12-05T03:52:27.267Z,196.40
2018-12-05T03:54:59.070Z,113.83
2018-12-05T03:57:31.311Z,89.07
2018-12-05T04:00:06.142Z,69.00
2018-12-05T04:02:37.689Z,79.22
2018-12-05T04:05:10.062Z,70.95
2018-12-05T04:07:44.734Z,71.67
2018-12-05T04:10:18.835Z,54.58
2018-12-05T04:12:53.874Z,55.92
2018-12-05T04:15:29.967Z,53.87
2018-12-05T04:18:04.726Z,54.90
2018-12-05T04:20:36.583Z,50.52
2018-12-05T04:23:08.509Z,54.35
2018-12-05T04:25:45.450Z,51.35
2018-12-05T04:28:19.291Z,48.33
2018-12-05T04:30:57.196Z,49.80
2018-12-05T04:33:33.228Z,61.08
2018-12-05T04:36:18.363Z,60.60
2018-12-05T04:38:50.790Z,57.50
2018-12-05T04:41:25.432Z,60.15
2018-12-05T04:43:58.291Z,66.85
2018-12-05T04:46:30.684Z,66.97
2018-12-05T04:49:04.995Z,63.33
2018-12-05T04:51:36.742Z,62.35
2018-12-05T04:54:15.215Z,64.65
2018-12-05T04:56:49.163Z,66.33
2018-12-05T04:59:21.176Z,58.10
2018-12-05T05:01:53.386Z,52.85
2018-12-05T05:04:27.919Z,60.98
2018-12-05T05:07:04.051Z,48.90
2018-12-05T05:09:37.878Z,57.30
2018-12-05T05:12:12.059Z,68.55
2018-12-05T05:14:43.790Z,61.58
2018-12-05T05:17:18.197Z,78.02
2018-12-05T05:22:22.994Z,68.83
2018-12-05T05:27:27.664Z,78.80
2018-12-05T05:29:59.607Z,70.78
2018-12-05T05:35:06.281Z,63.55
2018-12-05T05:37:39.525Z,57.03
2018-12-05T05:40:12.394Z,60.20
2018-12-05T05:42:44.377Z,69.77
2018-12-05T05:45:16.286Z,58.05
2018-12-05T05:47:48.378Z,59.75
2018-12-05T05:50:20.843Z,62.90
2018-12-05T05:52:54.021Z,62.45
2018-12-05T05:55:27.406Z,59.30
2018-12-05T05:57:59.916Z,59.70
2018-12-05T06:00:36.392Z,62.60
2018-12-05T06:03:08.215Z,54.95
2018-12-05T06:05:39.870Z,61.30
2018-12-05T06:08:14.386Z,56.50
2018-12-05T06:10:46.478Z,46.85
2018-12-05T06:13:18.689Z,41.28
2018-12-05T06:15:51.126Z,42.62
2018-12-05T06:18:25.839Z,54.10
2018-12-05T06:20:57.649Z,61.35
2018-12-05T06:23:29.206Z,46.83
2018-12-05T06:26:01.559Z,60.40
2018-12-05T06:28:36.110Z,65.72
2018-12-05T06:31:08.111Z,52.35
2018-12-05T06:33:42.542Z,54.18
2018-12-05T06:36:17.001Z,62.30
2018-12-05T06:38:49.215Z,57.23
2018-12-05T06:41:21.179Z,65.42
2018-12-05T06:43:53.514Z,65.20
2018-12-05T06:46:25.518Z,67.05
2018-12-05T06:48:57.766Z,75.15
2018-12-05T06:51:29.913Z,58.17
2018-12-05T06:54:02.130Z,52.73
2018-12-05T06:56:34.610Z,63.50
2018-12-05T06:59:07.246Z,57.80
2018-12-05T07:01:39.494Z,54.73
2018-12-05T07:04:12.121Z,56.90
2018-12-05T07:06:44.451Z,74.77
2018-12-05T07:09:16.427Z,82.20
2018-12-05T07:11:49.142Z,79.17
2018-12-05T07:14:24.039Z,65.03
2018-12-05T07:16:55.639Z,71.70
2018-12-05T07:19:27.410Z,75.12
2018-12-05T07:21:59.292Z,59.00
2018-12-05T07:24:31.971Z,63.75
2018-12-05T07:27:03.887Z,61.92
2018-12-05T07:29:38.401Z,59.38
2018-12-05T07:32:10.598Z,62.35
2018-12-05T07:34:40.607Z,44.58
2018-12-05T07:37:12.350Z,35.28
2018-12-05T07:39:44.670Z,42.53
2018-12-05T07:42:17.052Z,38.23
2018-12-05T07:44:49.061Z,38.95
2018-12-05T07:47:29.900Z,38.40
2018-12-05T07:50:02.160Z,35.17
2018-12-05T07:52:36.637Z,33.33
2018-12-05T07:55:08.757Z,37.13
2018-12-05T07:57:40.930Z,36.20
2018-12-05T08:00:13.082Z,32.55
2018-12-05T08:02:45.647Z,31.90
2018-12-05T08:05:19.848Z,35.48
2018-12-05T08:07:54.122Z,43.33
2018-12-05T08:10:28.133Z,31.17
2018-12-05T08:13:00.176Z,30.23
2018-12-05T08:15:32.603Z,33.85
2018-12-05T08:18:07.184Z,33.02
2018-12-05T08:20:39.897Z,29.12
2018-12-05T08:23:12.761Z,31.02
2018-12-05T08:25:46.634Z,35.20
2018-12-05T08:28:22.646Z,37.95
2018-12-05T08:30:54.634Z,44.45
2018-12-05T08:33:26.570Z,44.23
2018-12-05T08:35:58.614Z,43.08
2018-12-05T08:38:31.038Z,44.90
2018-12-05T08:46:08.198Z,47.35
2018-12-05T08:51:09.890Z,43.02
2018-12-05T08:53:42.242Z,44.08
2018-12-05T09:03:47.460Z,34.70
2018-12-05T09:06:22.279Z,31.95
2018-12-05T09:08:54.228Z,32.45
2018-12-05T09:11:28.949Z,30.45
2018-12-05T09:14:00.689Z,30.80
2018-12-05T09:16:36.491Z,30.37
2018-12-05T09:19:08.249Z,32.15
2018-12-05T09:21:40.435Z,27.25
2018-12-05T09:24:10.561Z,23.85
2018-12-05T09:26:42.538Z,22.65
2018-12-05T09:29:14.576Z,21.97
2018-12-05T09:31:46.740Z,24.40
2018-12-05T09:34:18.836Z,21.93
2018-12-05T09:36:49.423Z,20.50
2018-12-05T09:39:21.569Z,19.92
2018-12-05T09:41:53.735Z,18.57
2018-12-05T09:44:28.211Z,18.50
2018-12-05T09:47:02.255Z,15.83
2018-12-05T09:49:37.271Z,16.48
2018-12-05T09:52:12.509Z,17.87
2018-12-05T09:54:44.335Z,17.15
2018-12-05T09:57:18.921Z,18.50
2018-12-05T09:59:50.787Z,18.37
2018-12-05T10:02:23.966Z,19.92
2018-12-05T10:04:56.964Z,20.55
2018-12-05T10:07:31.781Z,21.20
2018-12-05T10:10:04.495Z,18.20
2018-12-05T10:12:42.909Z,21.52
2018-12-05T10:15:17.110Z,16.73
2018-12-05T10:17:51.485Z,16.70
2018-12-05T10:20:24.071Z,17.50
2018-12-05T10:22:58.651Z,17.87
2018-12-05T10:25:32.671Z,17.70
2018-12-05T10:28:06.749Z,19.67
2018-12-05T10:30:40.890Z,15.97
2018-12-05T10:33:12.639Z,16.07
2018-12-05T10:35:48.404Z,15.13
2018-12-05T10:38:23.187Z,16.20
2018-12-05T10:40:55.369Z,16.50
2018-12-05T10:43:30.060Z,16.20
2018-12-05T10:46:04.782Z,29.33
2018-12-05T10:48:40.663Z,19.80
2018-12-05T10:51:15.563Z,18.83
2018-12-05T10:53:49.797Z,18.13
2018-12-05T10:56:24.139Z,17.73
2018-12-05T10:58:55.631Z,17.43
2018-12-05T11:01:35.499Z,19.60
2018-12-05T11:04:14.735Z,17.20
2018-12-05T11:06:54.682Z,17.90
2018-12-05T11:12:06.622Z,16.33
2018-12-05T11:14:49.032Z,25.57
2018-12-05T11:17:39.938Z,67.70
2018-12-05T11:20:23.737Z,27.17
2018-12-05T11:23:02.836Z,20.57
2018-12-05T11:25:37.838Z,19.20
2018-12-05T11:28:12.931Z,19.83
2018-12-05T11:30:47.271Z,18.40
2018-12-05T11:33:25.966Z,19.60
2018-12-05T11:36:04.554Z,18.60
2018-12-05T11:38:38.711Z,22.57
2018-12-05T11:41:12.933Z,17.47
2018-12-05T11:43:50.977Z,17.53
2018-12-05T11:46:27.190Z,20.57
2018-12-05T11:49:05.447Z,21.17
2018-12-05T11:51:43.827Z,18.27
2018-12-05T11:54:19.835Z,23.90
2018-12-05T11:56:57.865Z,20.80
2018-12-05T11:59:31.893Z,20.10
2018-12-05T12:02:09.891Z,21.53
2018-12-05T12:04:44.933Z,22.00
2018-12-05T12:07:21.019Z,24.00
2018-12-05T12:09:59.142Z,19.00
2018-12-05T12:12:44.164Z,23.33
2018-12-05T12:15:18.213Z,21.67
2018-12-05T12:17:50.353Z,21.87
2018-12-05T12:20:26.464Z,21.40
2018-12-05T12:23:01.255Z,22.67
2018-12-05T12:25:33.185Z,21.70
2018-12-05T12:28:07.414Z,19.83
2018-12-05T12:30:42.168Z,20.63
2018-12-05T12:33:17.502Z,23.93
2018-12-05T12:35:51.614Z,18.00
2018-12-05T12:38:25.799Z,18.10
2018-12-05T12:40:57.329Z,17.73
2018-12-05T12:43:32.019Z,19.03
2018-12-05T12:46:07.003Z,20.27
2018-12-05T12:48:42.872Z,18.60
2018-12-05T12:51:17.634Z,18.53
2018-12-05T12:53:52.168Z,14.80
2018-12-05T12:56:30.247Z,14.03
2018-12-05T12:59:11.480Z,13.80
2018-12-05T13:01:46.226Z,13.60
2018-12-05T13:04:25.888Z,15.33
2018-12-05T13:07:00.304Z,13.20
2018-12-05T13:09:36.555Z,14.20
2018-12-05T13:12:13.246Z,11.67
2018-12-05T13:14:49.156Z,11.43
2018-12-05T13:17:23.203Z,15.10
2018-12-05T13:19:59.551Z,9.20
2018-12-05T13:22:35.984Z,9.40
2018-12-05T13:25:10.358Z,9.80
2018-12-05T13:27:46.522Z,10.50
2018-12-05T13:30:20.879Z,7.83
2018-12-05T13:33:08.942Z,7.70
2018-12-05T13:38:36.458Z,7.87
2018-12-05T13:41:10.571Z,6.60
2018-12-05T13:43:51.462Z,6.23
2018-12-05T13:46:29.885Z,8.10
2018-12-05T13:48:59.228Z,10.13
2018-12-05T13:51:31.373Z,6.90
2018-12-05T13:54:06.077Z,6.90
2018-12-05T13:56:44.087Z,11.90
2018-12-05T13:59:26.778Z,7.33
2018-12-05T14:02:03.767Z,11.33
2018-12-05T14:04:35.302Z,9.60
2018-12-05T14:07:07.631Z,10.03
2018-12-05T14:09:46.218Z,31.60
2018-12-05T14:12:28.081Z,15.60
2018-12-05T14:15:02.856Z,12.43
2018-12-05T14:17:34.508Z,14.33
2018-12-05T14:20:08.530Z,11.22
2018-12-05T14:22:43.190Z,15.90
2018-12-05T14:25:15.518Z,12.17
2018-12-05T14:27:50.455Z,15.68
2018-12-05T14:30:22.758Z,10.68
2018-12-05T14:32:57.799Z,10.88
2018-12-05T14:35:33.792Z,9.63
2018-12-05T14:38:10.127Z,11.48
2018-12-05T14:40:51.185Z,11.73
2018-12-05T14:43:25.798Z,11.43
2018-12-05T14:45:57.995Z,9.45
2018-12-05T14:48:34.347Z,11.08
2018-12-05T14:51:06.522Z,11.30
2018-12-05T14:53:40.047Z,11.10
2018-12-05T14:56:23.114Z,13.50
2018-12-05T14:58:55.582Z,11.28
2018-12-05T15:01:28.458Z,11.70
2018-12-05T15:04:01.959Z,11.65
2018-12-05T15:06:34.068Z,13.55
2018-12-05T15:09:07.443Z,10.35
2018-12-05T15:11:39.533Z,11.40
2018-12-05T15:14:14.291Z,12.80
2018-12-05T15:16:48.463Z,11.15
2018-12-05T15:19:20.091Z,11.60
2018-12-05T15:21:52.528Z,11.15
2018-12-05T15:24:24.959Z,12.78
2018-12-05T15:27:03.628Z,14.00
2018-12-05T15:29:37.939Z,13.70
2018-12-05T15:32:09.826Z,12.78
2018-12-05T15:34:43.049Z,11.83
2018-12-05T15:37:14.775Z,13.00
2018-12-05T15:39:47.205Z,14.50
2018-12-05T15:42:19.123Z,15.25
2018-12-05T15:44:51.395Z,15.13
2018-12-05T15:47:24.755Z,17.55
2018-12-05T15:50:01.380Z,17.10
2018-12-05T15:52:33.134Z,19.10
2018-12-05T15:55:05.491Z,19.57
2018-12-05T15:57:37.459Z,19.12
2018-12-05T16:00:10.022Z,22.15
2018-12-05T16:02:41.971Z,16.52
2018-12-05T16:05:14.231Z,16.80
2018-12-05T16:07:46.399Z,16.23
2018-12-05T16:10:18.925Z,16.75
2018-12-05T16:12:51.334Z,17.17
2018-12-05T16:15:23.538Z,16.07
2018-12-05T16:17:58.745Z,18.50
2018-12-05T16:20:32.304Z,14.75
2018-12-05T16:23:04.503Z,15.72
2018-12-05T16:25:36.467Z,17.80
2018-12-05T16:28:10.987Z,16.48
2018-12-05T16:30:47.516Z,15.10
2018-12-05T16:33:19.532Z,15.90
2018-12-05T16:35:56.068Z,16.87
2018-12-05T16:38:28.073Z,15.13
2018-12-05T16:41:02.231Z,17.80
2018-12-05T16:43:34.396Z,14.87
2018-12-05T16:46:07.134Z,16.65
2018-12-05T16:48:39.733Z,14.85
2018-12-05T16:51:11.359Z,14.80
2018-12-05T16:53:43.551Z,13.53
2018-12-05T16:56:18.348Z,15.75
2018-12-05T16:58:51.265Z,14.18
2018-12-05T17:01:23.518Z,14.07
2018-12-05T17:03:56.004Z,15.45
2018-12-05T17:06:30.563Z,14.20
2018-12-05T17:09:02.233Z,18.42
2018-12-05T17:11:37.818Z,144.40
2018-12-05T17:14:10.752Z,23.38
2018-12-05T17:16:42.949Z,18.82
2018-12-05T17:19:15.143Z,13.20
2018-12-05T17:21:49.932Z,20.75
2018-12-05T17:24:22.569Z,16.02
2018-12-05T17:26:55.426Z,33.55
2018-12-05T17:29:29.843Z,15.85
2018-12-05T17:34:56.792Z,34.10
2018-12-05T17:37:28.774Z,30.88
2018-12-05T17:40:03.284Z,33.58
2018-12-05T17:42:35.647Z,32.35
2018-12-05T17:45:07.804Z,24.63
2018-12-05T17:47:42.331Z,23.18
2018-12-05T17:50:20.869Z,53.80
2018-12-05T17:52:54.996Z,42.75
2018-12-05T17:55:26.709Z,71.20
2018-12-05T17:58:02.119Z,34.48
2018-12-05T18:00:33.996Z,22.65
2018-12-05T18:03:06.198Z,22.13
2018-12-05T18:05:40.587Z,18.25
2018-12-05T18:08:19.794Z,20.75
2018-12-05T18:10:51.565Z,26.50
2018-12-05T18:13:24.880Z,24.02
2018-12-05T18:16:02.855Z,19.35
2018-12-05T18:18:35.688Z,17.17
2018-12-05T18:21:24.396Z,19.40
2018-12-05T18:24:02.999Z,18.40
2018-12-05T18:29:32.606Z,17.32
2018-12-05T18:32:06.648Z,19.98
2018-12-05T18:34:43.551Z,23.62
2018-12-05T18:57:59.727Z,21.82
2018-12-05T19:00:36.053Z,22.02
2018-12-05T19:05:52.969Z,20.60
2018-12-05T19:08:34.227Z,22.48
2018-12-05T19:11:09.363Z,19.30
2018-12-05T19:13:55.113Z,21.80
2018-12-05T19:16:40.279Z,20.72
2018-12-05T19:19:15.964Z,18.20
2018-12-05T19:21:52.135Z,20.17
2018-12-05T19:24:34.061Z,20.32
2018-12-05T19:27:03.260Z,19.87
2018-12-05T19:29:32.222Z,18.55
2018-12-05T19:32:08.722Z,17.48
2018-12-05T19:34:47.043Z,20.75
2018-12-05T19:37:16.278Z,18.92
2018-12-05T19:39:45.090Z,16.15
2018-12-05T19:42:29.890Z,17.17
2018-12-05T19:44:59.384Z,18.80
2018-12-05T19:47:28.228Z,20.97
2018-12-05T19:49:58.477Z,18.80
2018-12-05T19:52:35.094Z,19.35
2018-12-05T19:55:04.387Z,19.62
2018-12-05T19:57:33.309Z,19.27
2018-12-05T20:00:02.307Z,17.32
2018-12-05T20:02:38.801Z,16.48
2018-12-05T20:05:08.109Z,17.50
2018-12-05T20:07:36.889Z,17.25
2018-12-05T20:10:06.074Z,15.58
2018-12-05T20:12:44.284Z,15.38
2018-12-05T20:15:13.177Z,18.37
2018-12-05T20:17:41.997Z,15.35
2018-12-05T20:20:10.973Z,30.10
2018-12-05T20:22:48.375Z,19.35
2018-12-05T20:25:17.481Z,17.45
2018-12-05T20:27:46.950Z,20.15
2018-12-05T20:30:16.373Z,19.52
2018-12-05T20:32:45.171Z,23.18
2018-12-05T20:35:14.199Z,26.45
2018-12-05T20:37:42.996Z,25.15
2018-12-05T20:40:12.827Z,24.12
2018-12-05T20:42:51.070Z,47.20
2018-12-05T20:45:20.089Z,36.60
2018-12-05T20:47:48.871Z,31.20
2018-12-05T20:50:17.756Z,30.08
2018-12-05T20:52:46.586Z,27.13
2018-12-05T20:55:15.578Z,80.03
2018-12-05T20:57:44.333Z,43.00
2018-12-05T21:00:13.112Z,44.27
2018-12-05T21:02:49.984Z,43.28
2018-12-05T21:05:18.889Z,38.23
2018-12-05T21:07:47.777Z,31.73
2018-12-05T21:10:16.801Z,27.07
2018-12-05T21:12:47.151Z,26.27
2018-12-05T21:15:28.895Z,25.72
2018-12-05T21:18:07.423Z,28.55
2018-12-05T21:20:44.118Z,25.32
2018-12-05T21:23:24.605Z,26.93
2018-12-05T21:25:54.643Z,27.50
2018-12-05T21:28:35.039Z,57.17
2018-12-05T21:31:11.968Z,37.55
2018-12-05T21:33:59.106Z,25.70
2018-12-05T21:36:28.259Z,20.97
2018-12-05T21:38:57.213Z,19.98
2018-12-05T21:41:33.458Z,19.15
2018-12-05T21:44:14.555Z,18.92
2018-12-05T21:46:44.844Z,21.55
2018-12-05T21:49:13.873Z,21.80
2018-12-05T21:52:01.013Z,17.37
2018-12-05T21:54:29.879Z,17.87
2018-12-05T21:56:58.675Z,18.12
2018-12-05T21:59:27.563Z,16.93
2018-12-05T22:02:04.352Z,16.00
2018-12-05T22:04:43.023Z,19.70
2018-12-05T22:07:11.817Z,16.17
2018-12-05T22:09:52.105Z,16.23
2018-12-05T22:18:10.953Z,18.05
2018-12-05T22:20:49.824Z,19.92
2018-12-05T22:23:18.620Z,20.45
2018-12-05T22:25:47.863Z,22.02
2018-12-05T22:28:16.820Z,19.62
2018-12-05T22:30:53.169Z,19.57
2018-12-05T22:33:22.032Z,19.82
2018-12-05T22:36:00.818Z,19.75
2018-12-05T22:38:29.662Z,22.82
2018-12-05T22:41:06.208Z,22.10
2018-12-05T22:43:44.700Z,23.05
2018-12-05T22:46:25.894Z,19.90
2018-12-05T22:49:04.565Z,21.50
2018-12-05T22:51:42.624Z,19.80
2018-12-05T22:54:11.458Z,21.30
2018-12-05T22:56:40.279Z,20.00
2018-12-05T22:59:09.340Z,18.90
2018-12-05T23:01:46.750Z,19.30
2018-12-05T23:04:27.646Z,19.62
2018-12-05T23:06:56.543Z,17.45
2018-12-05T23:09:25.278Z,16.67
2018-12-05T23:12:04.039Z,18.87
2018-12-05T23:14:42.255Z,18.67
2018-12-05T23:17:11.102Z,22.45
2018-12-05T23:19:48.160Z,25.40
2018-12-05T23:22:29.472Z,34.60
2018-12-05T23:25:05.325Z,32.50
2018-12-05T23:27:49.763Z,30.00
2018-12-05T23:30:32.888Z,32.48
2018-12-05T23:33:13.972Z,30.90
2018-12-05T23:35:50.247Z,26.55
2018-12-05T23:38:26.903Z,25.40
2018-12-05T23:41:02.927Z,25.62
2018-12-05T23:43:40.870Z,26.60
2018-12-05T23:46:19.078Z,29.37
2018-12-05T23:48:55.322Z,29.52
2018-12-05T23:51:33.565Z,27.90
2018-12-05T23:54:09.875Z,28.27
2018-12-05T23:56:44.146Z,26.40
2018-12-05T23:59:20.552Z,28.32
